sensor_id;sensor_type;location;lat;lon;timestamp;pressure;altitude;pressure_sealevel;temperature;humidity
76095;BME280;64821;13.710;100.604;2024-03-02T20:02:01;101088.28;;;44.31;31.11
76095;BME280;64821;13.710;100.604;2024-03-02T20:03:06;101090.28;;;44.30;30.05
76095;BME280;64821;13.710;100.604;2024-03-02T20:04:10;101080.28;;;44.29;30.37
76095;BME280;64821;13.710;100.604;2024-03-02T20:05:15;101086.28;;;44.27;30.45
76095;BME280;64821;13.710;100.604;2024-03-02T20:06:19;101086.69;;;44.30;30.50
76095;BME280;64821;13.710;100.604;2024-03-02T20:07:23;101093.06;;;44.30;30.63
76095;BME280;64821;13.710;100.604;2024-03-02T20:08:27;101087.47;;;44.30;30.27
76095;BME280;64821;13.710;100.604;2024-03-02T20:09:31;101081.50;;;44.24;30.55
76095;BME280;64821;13.710;100.604;2024-03-02T20:10:35;101095.44;;;44.21;30.81
76095;BME280;64821;13.710;100.604;2024-03-02T20:11:39;101085.88;;;44.22;30.34
76095;BME280;64821;13.710;100.604;2024-03-02T20:12:44;101083.47;;;44.20;30.42
76095;BME280;64821;13.710;100.604;2024-03-02T20:13:48;101085.47;;;44.20;30.47
76095;BME280;64821;13.710;100.604;2024-03-02T20:14:52;101084.66;;;44.19;30.62
76095;BME280;64821;13.710;100.604;2024-03-02T20:15:56;101071.47;;;44.09;30.58
76095;BME280;64821;13.710;100.604;2024-03-02T20:17:02;101099.03;;;44.21;30.77
76095;BME280;64821;13.710;100.604;2024-03-02T20:18:06;101091.06;;;44.20;30.35
76095;BME280;64821;13.710;100.604;2024-03-02T20:19:10;101083.88;;;44.19;30.55
76095;BME280;64821;13.710;100.604;2024-03-02T20:20:15;101085.88;;;44.15;30.40
76095;BME280;64821;13.710;100.604;2024-03-02T20:21:19;101087.47;;;44.16;30.59
76095;BME280;64821;13.710;100.604;2024-03-02T20:22:23;101077.50;;;44.15;30.59
76095;BME280;64821;13.710;100.604;2024-03-02T20:23:27;101070.69;;;44.05;30.82
76095;BME280;64821;13.710;100.604;2024-03-02T20:24:31;101076.28;;;44.09;30.81
76095;BME280;64821;13.710;100.604;2024-03-02T20:25:35;101073.50;;;44.05;30.37
76095;BME280;64821;13.710;100.604;2024-03-02T20:26:39;101076.69;;;44.07;30.76
76095;BME280;64821;13.710;100.604;2024-03-02T20:27:43;101077.88;;;44.06;30.48
76095;BME280;64821;13.710;100.604;2024-03-02T20:28:47;101071.47;;;44.02;30.96
76095;BME280;64821;13.710;100.604;2024-03-02T20:29:52;101067.47;;;44.00;30.82
76095;BME280;64821;13.710;100.604;2024-03-02T20:30:56;101070.66;;;43.98;30.89
76095;BME280;64821;13.710;100.604;2024-03-02T20:32:01;101073.88;;;44.04;30.86
76095;BME280;64821;13.710;100.604;2024-03-02T20:33:06;101075.88;;;44.07;30.58
76095;BME280;64821;13.710;100.604;2024-03-02T20:34:11;101075.88;;;44.07;30.68
76095;BME280;64821;13.710;100.604;2024-03-02T20:35:19;101075.88;;;44.07;30.39
76095;BME280;64821;13.710;100.604;2024-03-02T20:36:23;101063.50;;;44.08;30.34
76095;BME280;64821;13.710;100.604;2024-03-02T20:37:27;101067.50;;;44.07;30.42
76095;BME280;64821;13.710;100.604;2024-03-02T20:38:31;101067.09;;;44.08;30.64
76095;BME280;64821;13.710;100.604;2024-03-02T20:39:35;101069.91;;;44.05;30.92
76095;BME280;64821;13.710;100.604;2024-03-02T20:40:39;101073.09;;;44.07;30.67
76095;BME280;64821;13.710;100.604;2024-03-02T20:41:43;101075.09;;;44.06;30.69
76095;BME280;64821;13.710;100.604;2024-03-02T20:42:47;101069.88;;;44.08;30.42
76095;BME280;64821;13.710;100.604;2024-03-02T20:43:52;101069.09;;;44.08;30.49
76095;BME280;64821;13.710;100.604;2024-03-02T20:44:56;101068.28;;;44.04;30.94
76095;BME280;64821;13.710;100.604;2024-03-02T20:46:00;101064.31;;;44.05;30.51
76095;BME280;64821;13.710;100.604;2024-03-02T20:47:06;101061.53;;;44.05;31.17
76095;BME280;64821;13.710;100.604;2024-03-02T20:48:10;101042.69;;;43.84;30.64
76095;BME280;64821;13.710;100.604;2024-03-02T20:49:15;101058.31;;;44.03;30.60
76095;BME280;64821;13.710;100.604;2024-03-02T20:50:19;101069.91;;;44.05;30.73
76095;BME280;64821;13.710;100.604;2024-03-02T20:51:23;101063.50;;;44.04;30.76
76095;BME280;64821;13.710;100.604;2024-03-02T20:52:27;101059.53;;;44.05;30.54
76095;BME280;64821;13.710;100.604;2024-03-02T20:53:32;101057.13;;;44.04;30.57
76095;BME280;64821;13.710;100.604;2024-03-02T20:54:36;101058.72;;;44.05;30.51
76095;BME280;64821;13.710;100.604;2024-03-02T20:55:40;101059.13;;;44.03;30.77
76095;BME280;64821;13.710;100.604;2024-03-02T20:56:44;101059.09;;;44.00;30.33
76095;BME280;64821;13.710;100.604;2024-03-02T20:57:48;101053.41;;;43.78;30.96
76095;BME280;64821;13.710;100.604;2024-03-02T20:58:52;101061.03;;;43.88;30.82
76095;BME280;64821;13.710;100.604;2024-03-02T20:59:56;101055.06;;;43.94;30.85
76095;BME280;64821;13.710;100.604;2024-03-02T21:01:01;101065.88;;;43.99;30.71
76095;BME280;64821;13.710;100.604;2024-03-02T21:02:07;101059.50;;;44.02;31.08
76095;BME280;64821;13.710;100.604;2024-03-02T21:03:11;101056.72;;;44.02;31.06
76095;BME280;64821;13.710;100.604;2024-03-02T21:04:15;101046.34;;;44.02;30.96
76095;BME280;64821;13.710;100.604;2024-03-02T21:05:19;101053.94;;;44.02;30.77
76095;BME280;64821;13.710;100.604;2024-03-02T21:06:24;101043.16;;;43.97;30.78
76095;BME280;64821;13.710;100.604;2024-03-02T21:07:28;101057.53;;;44.02;30.60
76095;BME280;64821;13.710;100.604;2024-03-02T21:08:32;101058.28;;;43.99;30.89
76095;BME280;64821;13.710;100.604;2024-03-02T21:09:36;101064.28;;;44.01;30.76
76095;BME280;64821;13.710;100.604;2024-03-02T21:10:40;101060.69;;;44.01;31.01
76095;BME280;64821;13.710;100.604;2024-03-02T21:11:45;101057.91;;;44.01;30.56
76095;BME280;64821;13.710;100.604;2024-03-02T21:12:50;101059.91;;;43.97;30.75
76095;BME280;64821;13.710;100.604;2024-03-02T21:13:54;101057.53;;;44.02;30.58
76095;BME280;64821;13.710;100.604;2024-03-02T21:14:59;101056.72;;;44.02;30.93
76095;BME280;64821;13.710;100.604;2024-03-02T21:16:03;101059.91;;;44.00;30.75
76095;BME280;64821;13.710;100.604;2024-03-02T21:17:09;101058.72;;;43.98;31.15
76095;BME280;64821;13.710;100.604;2024-03-02T21:18:13;101067.09;;;43.98;30.96
76095;BME280;64821;13.710;100.604;2024-03-02T21:19:18;101065.50;;;43.97;30.75
76095;BME280;64821;13.710;100.604;2024-03-02T21:20:22;101033.06;;;43.71;31.03
76095;BME280;64821;13.710;100.604;2024-03-02T21:21:26;101064.19;;;43.80;31.21
76095;BME280;64821;13.710;100.604;2024-03-02T21:22:30;101067.38;;;43.78;31.30
76095;BME280;64821;13.710;100.604;2024-03-02T21:23:34;101060.59;;;43.79;30.72
76095;BME280;64821;13.710;100.604;2024-03-02T21:24:38;101068.19;;;43.75;30.84
76095;BME280;64821;13.710;100.604;2024-03-02T21:25:42;101060.59;;;43.72;31.06
76095;BME280;64821;13.710;100.604;2024-03-02T21:26:46;101073.38;;;43.80;30.95
76095;BME280;64821;13.710;100.604;2024-03-02T21:27:51;101067.41;;;43.82;30.96
76095;BME280;64821;13.710;100.604;2024-03-02T21:28:55;101074.59;;;43.83;30.86
76095;BME280;64821;13.710;100.604;2024-03-02T21:30:00;101081.38;;;43.85;31.21
76095;BME280;64821;13.710;100.604;2024-03-02T21:31:04;101075.38;;;43.80;30.98
76095;BME280;64821;13.710;100.604;2024-03-02T21:32:10;101080.97;;;43.83;31.42
76095;BME280;64821;13.710;100.604;2024-03-02T21:33:14;101068.97;;;43.72;31.04
76095;BME280;64821;13.710;100.604;2024-03-02T21:34:18;101074.53;;;43.72;30.94
76095;BME280;64821;13.710;100.604;2024-03-02T21:35:22;101085.72;;;43.72;30.91
76095;BME280;64821;13.710;100.604;2024-03-02T21:36:27;101088.94;;;43.78;31.30
76095;BME280;64821;13.710;100.604;2024-03-02T21:37:31;101088.53;;;43.79;30.97
76095;BME280;64821;13.710;100.604;2024-03-02T21:38:35;101081.34;;;43.82;30.83
76095;BME280;64821;13.710;100.604;2024-03-02T21:39:39;101083.38;;;43.88;30.71
76095;BME280;64821;13.710;100.604;2024-03-02T21:40:49;101086.97;;;43.92;30.86
76095;BME280;64821;13.710;100.604;2024-03-02T21:41:53;101083.38;;;43.85;30.73
76095;BME280;64821;13.710;100.604;2024-03-02T21:42:57;101089.38;;;43.94;30.85
76095;BME280;64821;13.710;100.604;2024-03-02T21:44:02;101084.16;;;43.85;30.74
76095;BME280;64821;13.710;100.604;2024-03-02T21:45:07;101087.78;;;43.93;31.16
76095;BME280;64821;13.710;100.604;2024-03-02T21:46:11;101085.00;;;43.93;30.74
76095;BME280;64821;13.710;100.604;2024-03-02T21:47:17;101090.19;;;43.98;31.20
76095;BME280;64821;13.710;100.604;2024-03-02T21:48:22;101091.03;;;44.02;30.88
76095;BME280;64821;13.710;100.604;2024-03-02T21:49:26;101088.63;;;44.04;30.95
76095;BME280;64821;13.710;100.604;2024-03-02T21:50:30;101093.03;;;44.05;30.65
76095;BME280;64821;13.710;100.604;2024-03-02T21:51:34;101093.44;;;44.04;30.46
76095;BME280;64821;13.710;100.604;2024-03-02T21:52:38;101083.34;;;43.78;31.09
76095;BME280;64821;13.710;100.604;2024-03-02T21:53:43;101090.53;;;43.82;31.04
76095;BME280;64821;13.710;100.604;2024-03-02T21:54:47;101078.56;;;43.82;31.13
76095;BME280;64821;13.710;100.604;2024-03-02T21:55:51;101092.94;;;43.91;30.85
76095;BME280;64821;13.710;100.604;2024-03-02T21:56:55;101088.56;;;43.86;30.64
76095;BME280;64821;13.710;100.604;2024-03-02T21:57:59;101093.31;;;43.82;31.01
76095;BME280;64821;13.710;100.604;2024-03-02T21:59:03;101094.94;;;43.83;30.96
76095;BME280;64821;13.710;100.604;2024-03-02T22:00:08;101091.34;;;43.83;30.91
76095;BME280;64821;13.710;100.604;2024-03-02T22:01:12;101092.16;;;43.87;30.93
76095;BME280;64821;13.710;100.604;2024-03-02T22:02:18;101099.31;;;43.88;30.75
76095;BME280;64821;13.710;100.604;2024-03-02T22:03:22;101094.97;;;43.94;31.29
76095;BME280;64821;13.710;100.604;2024-03-02T22:04:26;101093.41;;;43.97;30.64
76095;BME280;64821;13.710;100.604;2024-03-02T22:05:30;101096.59;;;43.99;30.49
76095;BME280;64821;13.710;100.604;2024-03-02T22:06:34;101097.81;;;43.98;30.66
76095;BME280;64821;13.710;100.604;2024-03-02T22:07:38;101098.19;;;43.96;30.66
76095;BME280;64821;13.710;100.604;2024-03-02T22:08:42;101096.94;;;43.86;30.56
76095;BME280;64821;13.710;100.604;2024-03-02T22:09:47;101108.91;;;43.90;30.80
76095;BME280;64821;13.710;100.604;2024-03-02T22:10:51;101100.53;;;43.90;30.67
76095;BME280;64821;13.710;100.604;2024-03-02T22:11:55;101101.31;;;43.91;30.88
76095;BME280;64821;13.710;100.604;2024-03-02T22:12:59;101101.72;;;43.93;30.97
76095;BME280;64821;13.710;100.604;2024-03-02T22:14:03;101100.94;;;43.92;30.92
76095;BME280;64821;13.710;100.604;2024-03-02T22:15:08;101098.13;;;43.85;30.53
76095;BME280;64821;13.710;100.604;2024-03-02T22:16:12;101100.09;;;43.88;30.89
76095;BME280;64821;13.710;100.604;2024-03-02T22:17:18;101098.91;;;43.89;31.20
76095;BME280;64821;13.710;100.604;2024-03-02T22:18:22;101094.56;;;43.92;30.48
76095;BME280;64821;13.710;100.604;2024-03-02T22:19:26;101099.38;;;43.99;30.56
76095;BME280;64821;13.710;100.604;2024-03-02T22:20:30;101096.59;;;43.99;30.56
76095;BME280;64821;13.710;100.604;2024-03-02T22:21:34;101104.16;;;43.98;30.74
76095;BME280;64821;13.710;100.604;2024-03-02T22:22:38;101106.16;;;44.01;30.65
76095;BME280;64821;13.710;100.604;2024-03-02T22:23:42;101096.59;;;43.95;30.65
76095;BME280;64821;13.710;100.604;2024-03-02T22:24:46;101113.34;;;43.99;30.58
76095;BME280;64821;13.710;100.604;2024-03-02T22:25:50;101114.56;;;44.01;30.41
76095;BME280;64821;13.710;100.604;2024-03-02T22:26:55;101109.34;;;43.96;30.44
76095;BME280;64821;13.710;100.604;2024-03-02T22:27:59;101124.13;;;44.00;30.41
76095;BME280;64821;13.710;100.604;2024-03-02T22:29:03;101110.16;;;44.00;30.55
76095;BME280;64821;13.710;100.604;2024-03-02T22:30:08;101116.94;;;43.99;30.83
76095;BME280;64821;13.710;100.604;2024-03-02T22:31:12;101118.53;;;44.00;30.54
76095;BME280;64821;13.710;100.604;2024-03-02T22:32:18;101118.53;;;44.00;31.01
76095;BME280;64821;13.710;100.604;2024-03-02T22:33:22;101107.38;;;44.00;30.64
76095;BME280;64821;13.710;100.604;2024-03-02T22:34:26;101116.50;;;43.94;30.44
76095;BME280;64821;13.710;100.604;2024-03-02T22:35:30;101111.72;;;43.94;30.53
76095;BME280;64821;13.710;100.604;2024-03-02T22:36:34;101120.94;;;44.02;30.51
76095;BME280;64821;13.710;100.604;2024-03-02T22:37:38;101114.56;;;44.05;30.60
76095;BME280;64821;13.710;100.604;2024-03-02T22:38:42;101115.34;;;44.02;30.60
76095;BME280;64821;13.710;100.604;2024-03-02T22:39:47;101120.13;;;44.01;30.36
76095;BME280;64821;13.710;100.604;2024-03-02T22:40:51;101121.72;;;43.99;30.57
76095;BME280;64821;13.710;100.604;2024-03-02T22:41:55;101117.72;;;44.00;30.71
76095;BME280;64821;13.710;100.604;2024-03-02T22:42:59;101116.13;;;43.99;30.72
76095;BME280;64821;13.710;100.604;2024-03-02T22:44:03;101116.53;;;44.01;30.63
76095;BME280;64821;13.710;100.604;2024-03-02T22:45:08;101124.88;;;43.94;30.59
76095;BME280;64821;13.710;100.604;2024-03-02T22:46:13;101118.47;;;43.93;30.92
76095;BME280;64821;13.710;100.604;2024-03-02T22:47:18;101134.03;;;43.94;30.82
76095;BME280;64821;13.710;100.604;2024-03-02T22:48:22;101132.06;;;43.95;30.56
76095;BME280;64821;13.710;100.604;2024-03-02T22:49:27;101130.91;;;43.96;30.57
76095;BME280;64821;13.710;100.604;2024-03-02T22:50:31;101128.09;;;43.96;30.82
76095;BME280;64821;13.710;100.604;2024-03-02T22:51:35;101138.47;;;43.99;30.66
76095;BME280;64821;13.710;100.604;2024-03-02T22:52:39;101130.50;;;44.01;30.41
76095;BME280;64821;13.710;100.604;2024-03-02T22:53:43;101131.31;;;44.01;30.82
76095;BME280;64821;13.710;100.604;2024-03-02T22:54:47;101132.09;;;44.02;30.51
76095;BME280;64821;13.710;100.604;2024-03-02T22:55:51;101127.72;;;44.01;30.65
76095;BME280;64821;13.710;100.604;2024-03-02T22:56:55;101126.53;;;44.02;30.57
76095;BME280;64821;13.710;100.604;2024-03-02T22:57:59;101133.69;;;44.03;30.44
76095;BME280;64821;13.710;100.604;2024-03-02T22:59:04;101136.50;;;44.03;30.83
76095;BME280;64821;13.710;100.604;2024-03-02T23:00:08;101134.09;;;44.01;30.64
76095;BME280;64821;13.710;100.604;2024-03-02T23:01:13;101136.88;;;43.98;30.69
76095;BME280;64821;13.710;100.604;2024-03-02T23:02:19;101135.69;;;43.95;31.27
76095;BME280;64821;13.710;100.604;2024-03-02T23:03:23;101136.44;;;43.92;31.06
76095;BME280;64821;13.710;100.604;2024-03-02T23:04:27;101137.63;;;43.95;30.66
76095;BME280;64821;13.710;100.604;2024-03-02T23:05:31;101134.84;;;43.95;30.47
76095;BME280;64821;13.710;100.604;2024-03-02T23:06:35;101138.88;;;43.97;30.58
76095;BME280;64821;13.710;100.604;2024-03-02T23:07:39;101133.25;;;43.94;30.73
76095;BME280;64821;13.710;100.604;2024-03-02T23:08:43;101142.06;;;43.99;30.46
76095;BME280;64821;13.710;100.604;2024-03-02T23:09:48;101149.63;;;43.99;30.55
76095;BME280;64821;13.710;100.604;2024-03-02T23:10:52;101149.25;;;44.00;30.82
76095;BME280;64821;13.710;100.604;2024-03-02T23:11:56;101158.00;;;43.99;30.98
76095;BME280;64821;13.710;100.604;2024-03-02T23:13:01;101151.63;;;43.98;30.52
76095;BME280;64821;13.710;100.604;2024-03-02T23:14:05;101153.59;;;43.94;30.77
76095;BME280;64821;13.710;100.604;2024-03-02T23:15:09;101158.03;;;44.02;30.68
76095;BME280;64821;13.710;100.604;2024-03-02T23:16:13;101159.22;;;44.01;30.63
76095;BME280;64821;13.710;100.604;2024-03-02T23:17:19;101154.41;;;43.98;31.02
76095;BME280;64821;13.710;100.604;2024-03-02T23:18:23;101156.03;;;43.96;30.76
76095;BME280;64821;13.710;100.604;2024-03-02T23:19:27;101153.19;;;43.92;30.97
76095;BME280;64821;13.710;100.604;2024-03-02T23:20:31;101154.38;;;43.91;31.07
76095;BME280;64821;13.710;100.604;2024-03-02T23:21:36;101155.94;;;43.88;30.74
76095;BME280;64821;13.710;100.604;2024-03-02T23:22:40;101151.97;;;43.93;30.71
76095;BME280;64821;13.710;100.604;2024-03-02T23:23:44;101162.75;;;43.87;30.94
76095;BME280;64821;13.710;100.604;2024-03-02T23:24:48;101159.94;;;43.87;30.98
76095;BME280;64821;13.710;100.604;2024-03-02T23:25:52;101153.56;;;43.87;30.98
76095;BME280;64821;13.710;100.604;2024-03-02T23:26:56;101156.34;;;43.90;31.08
76095;BME280;64821;13.710;100.604;2024-03-02T23:28:00;101160.75;;;43.91;31.02
76095;BME280;64821;13.710;100.604;2024-03-02T23:29:05;101155.50;;;43.79;30.98
76095;BME280;64821;13.710;100.604;2024-03-02T23:30:09;101165.13;;;43.85;30.80
76095;BME280;64821;13.710;100.604;2024-03-02T23:31:14;101173.50;;;43.89;31.01
76095;BME280;64821;13.710;100.604;2024-03-02T23:32:20;101160.34;;;43.89;31.54
76095;BME280;64821;13.710;100.604;2024-03-02T23:33:42;101166.31;;;43.84;31.55
76095;BME280;64821;13.710;100.604;2024-03-02T23:34:46;101170.63;;;43.71;31.06
76095;BME280;64821;13.710;100.604;2024-03-02T23:35:50;101168.22;;;43.70;31.23
76095;BME280;64821;13.710;100.604;2024-03-02T23:36:54;101169.81;;;43.67;31.12
76095;BME280;64821;13.710;100.604;2024-03-02T23:37:59;101163.41;;;43.63;31.42
76095;BME280;64821;13.710;100.604;2024-03-02T23:39:03;101170.59;;;43.64;31.47
76095;BME280;64821;13.710;100.604;2024-03-02T23:40:08;101168.25;;;43.73;31.55
76095;BME280;64821;13.710;100.604;2024-03-02T23:41:12;101145.47;;;43.64;30.90
76095;BME280;64821;13.710;100.604;2024-03-02T23:42:17;101183.47;;;43.86;31.01
76095;BME280;64821;13.710;100.604;2024-03-02T23:43:21;101179.06;;;43.85;30.89
76095;BME280;64821;13.710;100.604;2024-03-02T23:44:25;101176.66;;;43.84;31.00
76095;BME280;64821;13.710;100.604;2024-03-02T23:45:29;101182.66;;;43.89;31.13
76095;BME280;64821;13.710;100.604;2024-03-02T23:46:33;101172.69;;;43.88;31.08
76095;BME280;64821;13.710;100.604;2024-03-02T23:47:54;101177.16;;;43.97;31.98
76095;BME280;64821;13.710;100.604;2024-03-02T23:48:58;101180.75;;;43.97;31.01
76095;BME280;64821;13.710;100.604;2024-03-02T23:50:03;101181.94;;;43.96;30.91
76095;BME280;64821;13.710;100.604;2024-03-02T23:51:07;101189.06;;;43.94;30.79
76095;BME280;64821;13.710;100.604;2024-03-02T23:52:11;101183.13;;;43.95;30.72
76095;BME280;64821;13.710;100.604;2024-03-02T23:53:16;101193.91;;;43.97;30.92
76095;BME280;64821;13.710;100.604;2024-03-02T23:54:20;101192.72;;;43.98;31.08
76095;BME280;64821;13.710;100.604;2024-03-02T23:55:24;101189.53;;;43.99;30.61
76095;BME280;64821;13.710;100.604;2024-03-02T23:56:34;101201.09;;;44.01;31.01
76095;BME280;64821;13.710;100.604;2024-03-02T23:57:38;101194.72;;;43.97;31.03
76095;BME280;64821;13.710;100.604;2024-03-02T23:58:43;101193.50;;;43.98;31.15
76095;BME280;64821;13.710;100.604;2024-03-02T23:59:47;101202.28;;;44.00;31.03
